createdAt,value
2019-06-20T00:00:04.141Z,99.90
2019-06-20T00:02:32.299Z,99.90
2019-06-20T00:05:00.717Z,99.90
2019-06-20T00:07:29.043Z,99.90
2019-06-20T00:09:56.980Z,99.90
2019-06-20T00:12:25.244Z,99.90
2019-06-20T00:14:53.514Z,99.90
2019-06-20T00:17:21.774Z,99.90
2019-06-20T00:19:50.259Z,99.90
2019-06-20T00:22:18.830Z,99.90
2019-06-20T00:24:47.156Z,99.90
2019-06-20T00:27:15.473Z,99.90
2019-06-20T00:29:43.874Z,99.90
2019-06-20T00:32:12.357Z,99.90
2019-06-20T00:34:41.079Z,99.90
2019-06-20T00:37:09.453Z,99.90
2019-06-20T00:39:37.732Z,99.90
2019-06-20T00:42:06.074Z,99.90
2019-06-20T00:44:34.483Z,99.90
2019-06-20T00:47:02.757Z,99.90
2019-06-20T00:49:31.248Z,99.90
2019-06-20T00:51:59.430Z,99.90
2019-06-20T00:54:27.596Z,99.90
2019-06-20T00:56:56.074Z,99.90
2019-06-20T00:59:24.527Z,99.90
2019-06-20T01:01:52.880Z,99.90
2019-06-20T01:04:21.170Z,99.90
2019-06-20T01:06:49.542Z,99.90
2019-06-20T01:09:17.818Z,99.90
2019-06-20T01:11:46.114Z,99.90
2019-06-20T01:14:14.355Z,99.90
2019-06-20T01:16:42.616Z,99.90
2019-06-20T01:19:10.932Z,99.90
2019-06-20T01:21:38.967Z,99.90
2019-06-20T01:24:07.137Z,99.90
2019-06-20T01:26:35.343Z,99.90
2019-06-20T01:29:03.682Z,99.90
2019-06-20T01:31:31.865Z,99.90
2019-06-20T01:33:59.897Z,99.90
2019-06-20T01:36:28.121Z,99.90
2019-06-20T01:38:56.282Z,99.90
2019-06-20T01:41:24.486Z,99.90
2019-06-20T01:43:52.656Z,99.90
2019-06-20T01:46:21.022Z,99.90
2019-06-20T01:48:49.328Z,99.90
2019-06-20T01:51:17.575Z,99.90
2019-06-20T01:53:45.541Z,99.90
2019-06-20T01:56:13.954Z,99.90
2019-06-20T01:58:42.284Z,99.90
2019-06-20T02:01:10.461Z,99.90
2019-06-20T02:03:38.790Z,99.90
2019-06-20T02:06:07.011Z,99.90
2019-06-20T02:08:35.300Z,99.90
2019-06-20T02:11:03.599Z,99.90
2019-06-20T02:13:31.853Z,99.90
2019-06-20T02:15:59.936Z,99.90
2019-06-20T02:18:28.332Z,99.90
2019-06-20T02:20:57.678Z,99.90
2019-06-20T02:23:25.965Z,99.90
2019-06-20T02:25:54.273Z,99.90
2019-06-20T02:28:22.800Z,99.90
2019-06-20T02:30:50.913Z,99.90
2019-06-20T02:33:19.255Z,99.90
2019-06-20T02:35:47.479Z,99.90
2019-06-20T02:38:15.825Z,99.90
2019-06-20T02:40:44.192Z,99.90
2019-06-20T02:43:12.377Z,99.90
2019-06-20T02:45:40.559Z,99.90
2019-06-20T02:48:08.885Z,99.90
2019-06-20T02:50:37.108Z,99.90
2019-06-20T02:53:05.387Z,99.90
2019-06-20T02:55:33.771Z,99.90
2019-06-20T02:58:01.933Z,99.90
2019-06-20T03:00:38.837Z,99.90
2019-06-20T03:03:06.968Z,99.90
2019-06-20T03:05:34.940Z,99.90
2019-06-20T03:08:03.235Z,99.90
2019-06-20T03:10:31.616Z,99.90
2019-06-20T03:12:59.826Z,99.90
2019-06-20T03:15:27.862Z,99.90
2019-06-20T03:17:56.015Z,99.90
2019-06-20T03:20:25.666Z,99.90
2019-06-20T03:22:53.904Z,99.90
2019-06-20T03:25:22.065Z,99.90
2019-06-20T03:27:50.402Z,99.90
2019-06-20T03:30:19.340Z,99.90
2019-06-20T03:32:47.557Z,99.90
2019-06-20T03:35:15.842Z,99.90
2019-06-20T03:37:44.074Z,99.90
2019-06-20T03:40:12.382Z,99.90
2019-06-20T03:42:40.658Z,99.90
2019-06-20T03:45:09.007Z,99.90
2019-06-20T03:47:37.487Z,99.90
2019-06-20T03:50:05.892Z,99.90
2019-06-20T03:52:34.149Z,99.90
2019-06-20T03:55:02.452Z,99.90
2019-06-20T03:57:30.718Z,99.90
2019-06-20T03:59:58.861Z,99.90
2019-06-20T04:02:27.044Z,99.90
2019-06-20T04:04:55.267Z,99.90
2019-06-20T04:07:23.480Z,99.90
2019-06-20T04:09:51.663Z,99.90
2019-06-20T04:12:19.877Z,99.90
2019-06-20T04:14:49.110Z,99.90
2019-06-20T04:17:17.508Z,99.90
2019-06-20T04:19:45.830Z,99.90
2019-06-20T04:22:14.087Z,99.90
2019-06-20T04:24:42.324Z,99.90
2019-06-20T04:27:10.548Z,99.90
2019-06-20T04:29:38.900Z,99.90
2019-06-20T04:32:09.995Z,99.90
2019-06-20T04:34:38.250Z,99.90
2019-06-20T04:37:06.289Z,99.90
2019-06-20T04:39:34.357Z,99.90
2019-06-20T04:42:03.523Z,99.90
2019-06-20T04:44:31.722Z,99.90
2019-06-20T04:47:05.636Z,99.90
2019-06-20T04:49:33.808Z,99.90
2019-06-20T04:52:01.680Z,99.90
2019-06-20T04:54:29.967Z,99.90
2019-06-20T04:56:58.045Z,99.90
2019-06-20T04:59:26.198Z,99.90
2019-06-20T05:01:54.376Z,99.90
2019-06-20T05:04:22.542Z,99.90
2019-06-20T05:06:56.591Z,99.90
2019-06-20T05:09:24.813Z,99.90
2019-06-20T05:11:52.988Z,99.90
2019-06-20T05:14:21.218Z,99.90
2019-06-20T05:16:49.429Z,99.90
2019-06-20T05:19:17.604Z,99.90
2019-06-20T05:21:45.829Z,99.90
2019-06-20T05:24:14.221Z,99.90
2019-06-20T05:26:42.475Z,99.90
2019-06-20T05:29:10.765Z,99.90
2019-06-20T05:31:38.993Z,99.90
2019-06-20T05:34:07.052Z,99.90
2019-06-20T05:36:35.287Z,99.90
2019-06-20T05:39:04.756Z,99.90
2019-06-20T05:41:32.727Z,99.90
2019-06-20T05:44:00.956Z,99.90
2019-06-20T05:46:29.635Z,99.90
2019-06-20T05:48:57.842Z,99.90
2019-06-20T05:51:26.066Z,99.90
2019-06-20T05:53:54.080Z,99.90
2019-06-20T05:56:22.296Z,99.90
2019-06-20T05:58:50.629Z,99.90
2019-06-20T06:01:18.918Z,99.90
2019-06-20T06:03:47.081Z,99.90
2019-06-20T06:06:15.205Z,99.90
2019-06-20T06:08:43.438Z,99.90
2019-06-20T06:11:11.727Z,99.90
2019-06-20T06:13:39.935Z,99.90
2019-06-20T06:16:08.159Z,99.90
2019-06-20T06:18:36.451Z,99.90
2019-06-20T06:21:04.948Z,99.90
2019-06-20T06:23:32.903Z,99.90
2019-06-20T06:26:01.265Z,99.90
2019-06-20T06:28:29.533Z,99.90
2019-06-20T06:30:57.734Z,99.90
2019-06-20T06:33:25.892Z,99.90
2019-06-20T06:35:55.280Z,99.90
2019-06-20T06:38:23.456Z,99.90
2019-06-20T06:40:51.585Z,99.90
2019-06-20T06:43:19.937Z,99.90
2019-06-20T06:45:48.100Z,99.90
2019-06-20T06:48:16.202Z,99.90
2019-06-20T06:50:44.565Z,99.90
2019-06-20T06:53:12.846Z,99.90
2019-06-20T06:55:41.037Z,99.90
2019-06-20T06:58:09.288Z,99.40
2019-06-20T07:00:37.639Z,99.40
2019-06-20T07:03:05.812Z,98.80
2019-06-20T07:05:34.170Z,98.80
2019-06-20T07:08:02.164Z,98.70
2019-06-20T07:10:31.499Z,98.30
2019-06-20T07:12:59.810Z,98.30
2019-06-20T07:15:28.369Z,98.20
2019-06-20T07:17:56.724Z,97.70
2019-06-20T07:20:25.044Z,98.00
2019-06-20T07:22:53.700Z,97.50
2019-06-20T07:25:21.864Z,97.10
2019-06-20T07:27:50.089Z,97.40
2019-06-20T07:30:18.826Z,97.20
2019-06-20T07:32:47.095Z,97.10
2019-06-20T07:35:15.760Z,96.90
2019-06-20T07:37:43.985Z,96.70
2019-06-20T07:40:12.366Z,97.00
2019-06-20T07:42:40.559Z,96.60
2019-06-20T07:45:09.728Z,96.70
2019-06-20T07:47:38.389Z,96.70
2019-06-20T07:50:07.463Z,96.50
2019-06-20T07:52:35.667Z,96.30
2019-06-20T07:55:04.459Z,96.20
2019-06-20T07:57:33.032Z,96.30
2019-06-20T08:00:01.306Z,96.30
2019-06-20T08:02:29.521Z,96.20
2019-06-20T08:04:57.797Z,96.20
2019-06-20T08:07:26.149Z,96.30
2019-06-20T08:09:54.232Z,96.00
2019-06-20T08:12:22.685Z,95.80
2019-06-20T08:14:51.063Z,95.50
2019-06-20T08:17:34.252Z,95.70
2019-06-20T08:19:49.386Z,95.50
2019-06-20T08:22:17.484Z,95.30
2019-06-20T08:24:45.715Z,95.60
2019-06-20T08:27:14.969Z,95.50
2019-06-20T08:29:43.444Z,95.40
2019-06-20T08:32:11.306Z,95.00
2019-06-20T08:34:39.555Z,94.90
2019-06-20T08:37:07.830Z,94.70
2019-06-20T08:39:36.082Z,94.40
2019-06-20T08:42:04.526Z,94.90
2019-06-20T08:44:32.935Z,94.50
2019-06-20T08:47:02.307Z,93.90
2019-06-20T08:49:30.714Z,93.90
2019-06-20T08:51:59.224Z,93.60
2019-06-20T08:54:27.473Z,93.30
2019-06-20T08:56:57.292Z,93.30
2019-06-20T08:59:25.968Z,93.20
2019-06-20T09:01:56.546Z,93.30
2019-06-20T09:04:24.328Z,93.60
2019-06-20T09:06:55.194Z,93.10
2019-06-20T09:09:22.444Z,93.90
2019-06-20T09:11:50.585Z,93.60
2019-06-20T09:14:18.903Z,93.30
2019-06-20T09:16:47.190Z,93.50
2019-06-20T09:19:15.315Z,93.40
2019-06-20T09:21:43.637Z,93.50
2019-06-20T09:24:11.916Z,94.80
2019-06-20T09:26:40.231Z,95.40
2019-06-20T09:29:08.554Z,94.90
2019-06-20T09:31:36.835Z,95.50
2019-06-20T09:34:05.546Z,96.20
2019-06-20T09:36:33.603Z,96.00
2019-06-20T09:39:01.797Z,95.70
2019-06-20T09:41:30.246Z,95.70
2019-06-20T09:43:58.720Z,94.70
2019-06-20T09:46:27.115Z,93.80
2019-06-20T09:48:55.610Z,93.80
2019-06-20T09:51:23.776Z,94.60
2019-06-20T09:53:52.036Z,94.20
2019-06-20T09:56:20.509Z,94.00
2019-06-20T09:58:49.601Z,94.60
2019-06-20T10:01:18.199Z,94.90
2019-06-20T10:03:47.425Z,95.60
2019-06-20T10:06:16.516Z,95.80
2019-06-20T10:08:46.599Z,96.00
2019-06-20T10:11:14.608Z,96.00
2019-06-20T10:13:42.948Z,96.00
2019-06-20T10:16:11.217Z,96.20
2019-06-20T10:18:40.538Z,96.60
2019-06-20T10:21:08.708Z,96.20
2019-06-20T10:23:37.012Z,96.10
2019-06-20T10:26:05.455Z,95.40
2019-06-20T10:28:33.830Z,95.10
2019-06-20T10:31:01.927Z,95.30
2019-06-20T10:33:30.228Z,94.80
2019-06-20T10:35:58.647Z,94.80
2019-06-20T10:38:26.734Z,94.90
2019-06-20T10:40:58.580Z,95.80
2019-06-20T10:43:25.021Z,95.80
2019-06-20T10:45:53.246Z,95.70
2019-06-20T10:48:21.779Z,95.50
2019-06-20T10:50:49.875Z,96.50
2019-06-20T10:53:18.132Z,96.40
2019-06-20T10:55:46.988Z,96.30
2019-06-20T10:58:15.393Z,96.00
2019-06-20T11:00:44.569Z,96.50
2019-06-20T11:03:12.969Z,96.30
2019-06-20T11:05:42.312Z,96.60
2019-06-20T11:08:11.168Z,97.10
2019-06-20T11:10:40.344Z,97.80
2019-06-20T11:13:09.657Z,97.50
2019-06-20T11:15:39.255Z,96.80
2019-06-20T11:18:08.152Z,96.30
2019-06-20T11:20:36.062Z,97.00
2019-06-20T11:23:04.211Z,96.10
2019-06-20T11:25:32.515Z,96.70
2019-06-20T11:28:00.581Z,97.50
2019-06-20T11:30:44.553Z,96.10
2019-06-20T11:32:59.818Z,97.70
2019-06-20T11:35:28.034Z,98.10
2019-06-20T11:37:56.312Z,97.50
2019-06-20T11:40:24.461Z,97.90
2019-06-20T11:42:52.658Z,99.00
2019-06-20T11:45:21.968Z,98.50
2019-06-20T11:47:50.473Z,97.30
2019-06-20T11:50:19.247Z,97.90
2019-06-20T11:52:47.637Z,99.10
2019-06-20T11:55:16.433Z,98.60
2019-06-20T11:57:44.731Z,98.10
2019-06-20T12:00:13.875Z,97.80
2019-06-20T12:02:43.952Z,98.00
2019-06-20T12:05:12.479Z,97.70
2019-06-20T12:07:41.650Z,97.60
2019-06-20T12:10:12.698Z,96.50
2019-06-20T12:12:41.373Z,97.80
2019-06-20T12:15:11.266Z,97.90
2019-06-20T12:17:41.287Z,97.80
2019-06-20T12:20:09.924Z,98.30
2019-06-20T12:22:39.502Z,98.90
2019-06-20T12:25:11.918Z,98.00
2019-06-20T12:27:40.784Z,99.50
2019-06-20T12:30:09.661Z,99.50
2019-06-20T12:32:39.160Z,98.30
2019-06-20T12:35:08.436Z,98.60
2019-06-20T12:37:36.538Z,98.10
2019-06-20T12:40:05.282Z,98.20
2019-06-20T12:42:33.427Z,97.80
2019-06-20T12:45:01.596Z,99.10
2019-06-20T12:47:29.887Z,98.70
2019-06-20T12:49:58.018Z,99.90
2019-06-20T12:52:26.513Z,99.90
2019-06-20T12:55:50.794Z,98.40
2019-06-20T12:58:19.171Z,99.20
2019-06-20T13:00:47.465Z,99.20
2019-06-20T13:03:15.775Z,99.90
2019-06-20T13:05:44.909Z,99.00
2019-06-20T13:08:13.731Z,97.90
2019-06-20T13:10:42.114Z,97.40
2019-06-20T13:13:10.526Z,97.30
2019-06-20T13:15:39.115Z,96.90
2019-06-20T13:18:08.679Z,98.00
2019-06-20T13:20:38.799Z,97.10
2019-06-20T13:23:06.938Z,95.70
2019-06-20T13:25:35.221Z,96.00
2019-06-20T13:28:03.318Z,96.00
2019-06-20T13:30:31.594Z,96.70
2019-06-20T13:32:59.864Z,96.70
2019-06-20T13:35:28.344Z,98.60
2019-06-20T13:37:56.605Z,97.40
2019-06-20T13:40:25.192Z,97.30
2019-06-20T13:43:12.503Z,97.30
2019-06-20T13:45:42.861Z,95.00
2019-06-20T13:48:10.942Z,95.60
2019-06-20T13:50:40.462Z,95.80
2019-06-20T13:53:09.419Z,95.60
2019-06-20T13:55:39.454Z,95.20
2019-06-20T13:58:07.509Z,94.70
2019-06-20T14:00:36.017Z,94.40
2019-06-20T14:03:04.481Z,93.30
2019-06-20T14:05:32.746Z,94.00
2019-06-20T14:08:01.094Z,92.60
2019-06-20T14:10:29.282Z,93.40
2019-06-20T14:12:57.369Z,93.30
2019-06-20T14:15:25.771Z,93.60
2019-06-20T14:17:54.140Z,95.40
2019-06-20T14:20:22.791Z,95.40
2019-06-20T14:22:52.209Z,94.40
2019-06-20T14:25:20.766Z,94.00
2019-06-20T14:27:49.413Z,93.40
2019-06-20T14:30:19.471Z,91.90
2019-06-20T14:32:49.217Z,92.40
2019-06-20T14:35:18.170Z,91.30
2019-06-20T14:37:47.797Z,91.60
2019-06-20T14:40:17.041Z,91.00
2019-06-20T14:42:45.924Z,91.60
2019-06-20T14:45:14.414Z,91.60
2019-06-20T14:47:42.552Z,90.90
2019-06-20T14:50:11.119Z,91.40
2019-06-20T14:52:39.822Z,92.10
2019-06-20T14:55:08.407Z,91.80
2019-06-20T14:57:36.776Z,91.10
2019-06-20T15:00:05.812Z,91.60
2019-06-20T15:02:38.520Z,90.50
2019-06-20T15:05:04.656Z,90.30
2019-06-20T15:07:32.884Z,87.90
2019-06-20T15:10:01.098Z,88.10
2019-06-20T15:12:29.374Z,90.70
2019-06-20T15:14:57.856Z,91.20
2019-06-20T15:17:26.035Z,90.50
2019-06-20T15:19:55.786Z,89.80
2019-06-20T15:22:24.424Z,90.60
2019-06-20T15:24:53.910Z,90.80
2019-06-20T15:27:22.619Z,91.50
2019-06-20T15:29:52.114Z,91.00
2019-06-20T15:32:20.430Z,90.50
2019-06-20T15:34:49.385Z,89.50
2019-06-20T15:37:17.612Z,89.00
2019-06-20T15:39:46.691Z,90.00
2019-06-20T15:42:15.855Z,88.80
2019-06-20T15:44:44.186Z,87.90
2019-06-20T15:47:12.416Z,88.60
2019-06-20T15:49:40.680Z,89.40
2019-06-20T15:52:09.162Z,88.80
2019-06-20T15:54:37.548Z,90.10
2019-06-20T15:57:05.729Z,89.90
2019-06-20T15:59:34.115Z,90.10
2019-06-20T16:02:02.497Z,90.40
2019-06-20T16:04:30.770Z,89.80
2019-06-20T16:06:59.082Z,89.00
2019-06-20T16:09:27.408Z,86.90
2019-06-20T16:11:55.852Z,87.70
2019-06-20T16:14:24.217Z,88.30
2019-06-20T16:16:52.441Z,88.10
2019-06-20T16:19:21.019Z,88.30
2019-06-20T16:21:49.344Z,88.10
2019-06-20T16:24:17.568Z,88.10
2019-06-20T16:26:45.743Z,88.20
2019-06-20T16:29:13.967Z,87.20
2019-06-20T16:31:42.098Z,87.10
2019-06-20T16:34:10.262Z,87.00
2019-06-20T16:36:38.557Z,86.20
2019-06-20T16:39:07.721Z,85.10
2019-06-20T16:41:35.906Z,86.90
2019-06-20T16:44:04.493Z,87.10
2019-06-20T16:46:32.665Z,86.80
2019-06-20T16:49:00.853Z,86.40
2019-06-20T16:51:29.172Z,85.50
2019-06-20T16:53:57.168Z,84.70
2019-06-20T16:56:25.359Z,84.60
2019-06-20T16:58:53.602Z,85.60
2019-06-20T17:01:22.054Z,85.30
2019-06-20T17:03:50.302Z,85.70
2019-06-20T17:06:18.769Z,85.00
2019-06-20T17:08:47.183Z,86.70
2019-06-20T17:11:15.447Z,86.80
2019-06-20T17:13:43.791Z,85.90
2019-06-20T17:16:11.972Z,86.70
2019-06-20T17:18:40.203Z,86.70
2019-06-20T17:21:09.668Z,86.60
2019-06-20T17:23:37.862Z,86.50
2019-06-20T17:26:06.746Z,86.90
2019-06-20T17:28:34.954Z,87.10
2019-06-20T17:31:03.166Z,86.90
2019-06-20T17:33:31.440Z,86.90
2019-06-20T17:35:59.743Z,87.40
2019-06-20T17:38:28.196Z,87.20
2019-06-20T17:40:56.380Z,88.30
2019-06-20T17:43:24.656Z,87.20
2019-06-20T17:45:52.778Z,87.50
2019-06-20T17:48:21.238Z,87.50
2019-06-20T17:50:49.613Z,87.70
2019-06-20T17:53:17.752Z,88.40
2019-06-20T17:55:46.057Z,88.40
2019-06-20T17:58:14.338Z,88.70
2019-06-20T18:00:42.782Z,89.10
2019-06-20T18:03:11.068Z,89.50
2019-06-20T18:05:39.402Z,89.60
2019-06-20T18:08:15.215Z,89.70
2019-06-20T18:10:38.158Z,89.50
2019-06-20T18:13:06.459Z,89.80
2019-06-20T18:15:34.690Z,90.00
2019-06-20T18:18:02.995Z,90.10
2019-06-20T18:20:31.387Z,90.50
2019-06-20T18:22:59.629Z,90.70
2019-06-20T18:25:27.596Z,90.80
2019-06-20T18:27:55.809Z,90.60
2019-06-20T18:30:37.875Z,90.80
2019-06-20T18:33:06.599Z,91.10
2019-06-20T18:35:34.823Z,91.40
2019-06-20T18:38:03.342Z,91.40
2019-06-20T18:40:31.624Z,91.60
2019-06-20T18:42:59.807Z,91.80
2019-06-20T18:45:28.029Z,92.10
2019-06-20T18:47:56.408Z,92.10
2019-06-20T18:50:24.597Z,92.30
2019-06-20T18:52:52.972Z,92.30
2019-06-20T18:55:21.646Z,92.50
2019-06-20T18:57:49.965Z,92.50
2019-06-20T19:00:33.723Z,92.50
2019-06-20T19:02:48.770Z,92.30
2019-06-20T19:05:17.401Z,92.20
2019-06-20T19:07:45.612Z,92.30
2019-06-20T19:10:16.986Z,92.10
2019-06-20T19:12:45.445Z,92.20
2019-06-20T19:15:14.011Z,92.40
2019-06-20T19:17:42.292Z,92.20
2019-06-20T19:20:10.854Z,92.10
2019-06-20T19:22:39.139Z,92.10
2019-06-20T19:25:13.680Z,92.20
2019-06-20T19:27:46.810Z,92.30
2019-06-20T19:30:13.914Z,92.30
2019-06-20T19:32:42.269Z,92.40
2019-06-20T19:35:10.702Z,92.40
2019-06-20T19:37:38.922Z,92.60
2019-06-20T19:40:07.862Z,92.50
2019-06-20T19:42:36.227Z,92.70
2019-06-20T19:45:06.371Z,92.80
2019-06-20T19:47:34.688Z,93.00
2019-06-20T19:50:03.319Z,93.30
2019-06-20T19:52:31.363Z,92.80
2019-06-20T19:54:59.672Z,92.80
2019-06-20T19:57:28.101Z,92.80
2019-06-20T19:59:56.509Z,92.50
2019-06-20T20:02:24.700Z,92.20
2019-06-20T20:04:53.069Z,92.40
2019-06-20T20:07:21.512Z,92.40
2019-06-20T20:09:50.054Z,92.10
2019-06-20T20:12:18.172Z,92.10
2019-06-20T20:14:46.439Z,92.10
2019-06-20T20:17:14.926Z,92.10
2019-06-20T20:19:43.409Z,92.10
2019-06-20T20:22:11.502Z,92.10
2019-06-20T20:24:39.750Z,92.10
2019-06-20T20:27:08.058Z,92.30
2019-06-20T20:29:36.401Z,93.40
2019-06-20T20:32:05.255Z,94.40
2019-06-20T20:34:33.469Z,95.20
2019-06-20T20:37:01.850Z,96.90
2019-06-20T20:39:30.248Z,98.00
2019-06-20T20:41:58.601Z,98.30
2019-06-20T20:44:26.883Z,98.50
2019-06-20T20:46:55.285Z,98.70
2019-06-20T20:49:23.475Z,99.60
2019-06-20T20:51:51.706Z,99.20
2019-06-20T20:54:20.184Z,99.20
2019-06-20T20:56:48.485Z,99.60
2019-06-20T20:59:16.675Z,99.90
2019-06-20T21:01:44.766Z,99.90
2019-06-20T21:04:12.891Z,99.90
2019-06-20T21:06:41.172Z,99.90
2019-06-20T21:09:09.408Z,99.90
2019-06-20T21:11:37.614Z,99.90
2019-06-20T21:14:05.711Z,99.90
2019-06-20T21:16:34.062Z,99.40
2019-06-20T21:19:02.323Z,99.00
2019-06-20T21:21:30.608Z,99.30
2019-06-20T21:23:58.997Z,99.90
2019-06-20T21:26:28.731Z,99.90
2019-06-20T21:28:56.868Z,99.90
2019-06-20T21:31:25.257Z,99.90
2019-06-20T21:33:54.509Z,99.90
2019-06-20T21:36:23.034Z,99.90
2019-06-20T21:38:51.346Z,99.90
2019-06-20T21:41:19.501Z,99.90
2019-06-20T21:43:47.751Z,99.90
2019-06-20T21:46:16.066Z,99.90
2019-06-20T21:48:44.404Z,99.90
2019-06-20T21:51:12.518Z,99.90
2019-06-20T21:53:40.805Z,99.90
2019-06-20T21:56:08.887Z,99.90
2019-06-20T21:58:36.996Z,99.90
2019-06-20T22:01:06.462Z,99.90
2019-06-20T22:03:36.298Z,99.90
2019-06-20T22:06:04.701Z,99.90
2019-06-20T22:08:32.923Z,99.90
2019-06-20T22:11:01.279Z,99.90
2019-06-20T22:13:29.521Z,99.90
2019-06-20T22:15:57.735Z,99.90
2019-06-20T22:18:25.990Z,99.90
2019-06-20T22:20:54.241Z,99.90
2019-06-20T22:23:22.504Z,99.90
2019-06-20T22:25:50.734Z,99.90
2019-06-20T22:28:18.967Z,99.90
2019-06-20T22:30:54.065Z,99.90
2019-06-20T22:33:22.395Z,99.90
2019-06-20T22:35:50.762Z,99.90
2019-06-20T22:38:19.158Z,99.90
2019-06-20T22:40:47.719Z,99.90
2019-06-20T22:43:16.097Z,99.90
2019-06-20T22:45:45.807Z,99.90
2019-06-20T22:48:14.191Z,99.90
2019-06-20T22:50:42.806Z,99.90
2019-06-20T22:53:11.158Z,99.90
2019-06-20T22:55:39.452Z,99.90
2019-06-20T22:58:07.622Z,99.90
2019-06-20T23:00:35.924Z,99.90
2019-06-20T23:03:23.390Z,99.90
2019-06-20T23:05:51.675Z,99.90
2019-06-20T23:08:20.054Z,99.90
2019-06-20T23:10:48.267Z,99.90
2019-06-20T23:13:16.812Z,99.90
2019-06-20T23:15:45.056Z,99.90
2019-06-20T23:18:13.160Z,99.90
2019-06-20T23:20:41.680Z,99.90
2019-06-20T23:23:09.784Z,99.90
2019-06-20T23:25:40.010Z,99.90
2019-06-20T23:28:08.008Z,99.90
2019-06-20T23:30:36.134Z,99.90
2019-06-20T23:33:04.538Z,99.90
2019-06-20T23:35:32.748Z,99.90
2019-06-20T23:38:01.069Z,99.90
2019-06-20T23:40:29.252Z,99.90
2019-06-20T23:42:57.384Z,99.90
2019-06-20T23:45:25.598Z,99.90
2019-06-20T23:47:53.863Z,99.90
2019-06-20T23:50:22.105Z,99.90
2019-06-20T23:52:55.735Z,99.90
2019-06-20T23:55:24.076Z,99.90
2019-06-20T23:57:52.300Z,99.90
